createdAt,value
2023-03-21T00:00:41.284Z,101247.56
2023-03-21T00:03:08.975Z,101243.41
2023-03-21T00:05:42.390Z,101242.88
2023-03-21T00:08:09.156Z,101242.31
2023-03-21T00:10:41.239Z,101237.66
2023-03-21T00:13:13.967Z,101227.28
2023-03-21T00:16:01.903Z,101237.03
2023-03-21T00:18:31.781Z,101235.63
2023-03-21T00:21:29.340Z,101245.28
2023-03-21T00:23:46.814Z,101230.06
2023-03-21T00:26:14.200Z,101236.19
2023-03-21T00:28:42.114Z,101224.47
2023-03-21T00:31:09.406Z,101228.25
2023-03-21T00:33:37.271Z,101232.75
2023-03-21T00:36:05.746Z,101230.66
2023-03-21T00:38:32.277Z,101223.03
2023-03-21T00:41:04.572Z,101225.78
2023-03-21T00:43:34.231Z,101232.13
2023-03-21T00:46:00.894Z,101225.38
2023-03-21T00:48:27.970Z,101219.94
2023-03-21T00:50:57.171Z,101222.88
2023-03-21T00:53:23.855Z,101227.34
2023-03-21T00:55:50.408Z,101227.03
2023-03-21T00:58:17.709Z,101220.72
2023-03-21T01:00:47.039Z,101217.16
2023-03-21T01:03:24.312Z,101225.19
2023-03-21T01:06:05.089Z,101220.28
2023-03-21T01:08:51.283Z,101212.34
2023-03-21T01:11:22.813Z,101217.00
2023-03-21T01:14:20.868Z,101204.91
2023-03-21T01:16:37.240Z,101210.09
2023-03-21T01:19:09.332Z,101205.28
2023-03-21T01:21:41.267Z,101207.63
2023-03-21T01:24:08.119Z,101205.22
2023-03-21T01:26:34.619Z,101195.69
2023-03-21T01:29:01.140Z,101210.81
2023-03-21T01:31:27.652Z,101198.94
2023-03-21T01:33:54.126Z,101205.91
2023-03-21T01:36:25.858Z,101210.28
2023-03-21T01:38:53.347Z,101199.31
2023-03-21T01:41:41.963Z,101197.03
2023-03-21T01:44:17.446Z,101190.59
2023-03-21T01:47:07.382Z,101186.19
2023-03-21T01:49:38.963Z,101189.84
2023-03-21T01:52:13.182Z,101189.50
2023-03-21T01:54:43.244Z,101190.75
2023-03-21T01:57:13.532Z,101188.56
2023-03-21T01:59:46.018Z,101185.47
2023-03-21T02:02:17.923Z,101192.56
2023-03-21T02:04:56.071Z,101184.47
2023-03-21T02:07:28.813Z,101191.94
2023-03-21T02:09:56.360Z,101187.44
2023-03-21T02:12:23.330Z,101181.75
2023-03-21T02:14:50.236Z,101182.41
2023-03-21T02:17:38.422Z,101191.66
2023-03-21T02:20:27.657Z,101178.84
2023-03-21T02:23:39.173Z,101181.41
2023-03-21T02:26:17.780Z,101181.25
2023-03-21T02:29:04.849Z,101178.00
2023-03-21T02:31:40.710Z,101173.03
2023-03-21T02:34:22.123Z,101167.41
2023-03-21T02:37:07.277Z,101163.31
2023-03-21T02:40:15.857Z,101167.47
2023-03-21T02:43:22.175Z,101152.44
2023-03-21T02:45:55.168Z,101159.50
2023-03-21T02:48:44.771Z,101158.00
2023-03-21T02:51:19.009Z,101155.03
2023-03-21T02:53:53.263Z,101157.16
2023-03-21T02:56:27.372Z,101154.59
2023-03-21T02:58:53.894Z,101155.66
2023-03-21T03:01:20.867Z,101153.97
2023-03-21T03:03:47.618Z,101150.91
2023-03-21T03:06:25.714Z,101150.34
2023-03-21T03:09:31.666Z,101145.47
2023-03-21T03:12:14.044Z,101150.84
2023-03-21T03:15:02.689Z,101149.81
2023-03-21T03:17:43.080Z,101139.03
2023-03-21T03:20:25.949Z,101145.66
2023-03-21T03:23:54.331Z,101145.63
2023-03-21T03:26:27.069Z,101137.41
2023-03-21T03:28:56.333Z,101145.00
2023-03-21T03:31:30.539Z,101139.66
2023-03-21T03:34:00.998Z,101135.50
2023-03-21T03:36:33.106Z,101142.16
2023-03-21T03:39:00.913Z,101145.91
2023-03-21T03:41:29.425Z,101133.13
2023-03-21T03:43:58.518Z,101132.56
2023-03-21T03:46:46.813Z,101125.66
2023-03-21T03:49:15.750Z,101120.69
2023-03-21T03:51:58.317Z,101135.88
2023-03-21T03:54:29.871Z,101138.66
2023-03-21T03:56:56.576Z,101127.88
2023-03-21T03:59:24.246Z,101127.50
2023-03-21T04:01:51.512Z,101128.53
2023-03-21T04:04:18.097Z,101126.31
2023-03-21T04:06:51.742Z,101128.75
2023-03-21T04:09:22.162Z,101136.66
2023-03-21T04:11:51.537Z,101133.56
2023-03-21T04:14:18.045Z,101133.56
2023-03-21T04:16:44.503Z,101137.47
2023-03-21T04:19:11.107Z,101127.66
2023-03-21T04:21:37.703Z,101130.31
2023-03-21T04:24:04.753Z,101126.94
2023-03-21T04:26:33.430Z,101126.50
2023-03-21T04:29:00.912Z,101133.22
2023-03-21T04:31:28.681Z,101129.63
2023-03-21T04:33:55.958Z,101121.78
2023-03-21T04:36:26.412Z,101112.66
2023-03-21T04:38:53.354Z,101122.75
2023-03-21T04:41:20.333Z,101121.34
2023-03-21T04:43:47.499Z,101115.06
2023-03-21T04:46:14.040Z,101117.06
2023-03-21T04:48:40.599Z,101116.63
2023-03-21T04:51:07.107Z,101116.00
2023-03-21T04:53:33.593Z,101109.97
2023-03-21T04:56:00.710Z,101110.38
2023-03-21T04:58:27.482Z,101116.72
2023-03-21T05:00:54.062Z,101114.34
2023-03-21T05:03:22.025Z,101108.69
2023-03-21T05:05:49.202Z,101113.94
2023-03-21T05:08:18.330Z,101104.09
2023-03-21T05:10:44.765Z,101107.53
2023-03-21T05:13:11.313Z,101107.34
2023-03-21T05:15:38.280Z,101105.53
2023-03-21T05:18:11.492Z,101097.50
2023-03-21T05:20:42.789Z,101106.13
2023-03-21T05:23:12.674Z,101102.28
2023-03-21T05:25:40.341Z,101105.78
2023-03-21T05:28:07.864Z,101108.34
2023-03-21T05:30:34.629Z,101107.38
2023-03-21T05:33:01.316Z,101110.88
2023-03-21T05:35:27.903Z,101101.97
2023-03-21T05:37:54.380Z,101102.63
2023-03-21T05:40:21.388Z,101097.84
2023-03-21T05:42:48.204Z,101099.81
2023-03-21T05:45:15.681Z,101103.94
2023-03-21T05:47:42.229Z,101095.44
2023-03-21T05:50:09.806Z,101095.47
2023-03-21T05:52:36.266Z,101093.44
2023-03-21T05:55:03.523Z,101089.88
2023-03-21T05:57:30.028Z,101096.31
2023-03-21T05:59:56.557Z,101096.91
2023-03-21T06:02:23.099Z,101085.13
2023-03-21T06:04:49.614Z,101088.22
2023-03-21T06:07:16.104Z,101091.53
2023-03-21T06:09:42.723Z,101090.28
2023-03-21T06:12:09.240Z,101094.06
2023-03-21T06:14:35.770Z,101088.13
2023-03-21T06:17:02.213Z,101089.34
2023-03-21T06:19:28.666Z,101076.56
2023-03-21T06:21:55.333Z,101078.06
2023-03-21T06:24:22.086Z,101078.06
2023-03-21T06:26:48.585Z,101078.56
2023-03-21T06:29:15.214Z,101079.00
2023-03-21T06:31:41.778Z,101073.16
2023-03-21T06:34:10.441Z,101079.88
2023-03-21T06:36:37.255Z,101077.91
2023-03-21T06:39:04.728Z,101082.94
2023-03-21T06:41:31.181Z,101080.03
2023-03-21T06:43:57.742Z,101077.25
2023-03-21T06:46:24.261Z,101084.34
2023-03-21T06:48:50.884Z,101078.97
2023-03-21T06:51:17.400Z,101076.50
2023-03-21T06:53:44.632Z,101076.25
2023-03-21T06:56:12.193Z,101075.31
2023-03-21T06:58:39.062Z,101069.50
2023-03-21T07:01:06.069Z,101066.72
2023-03-21T07:03:33.034Z,101062.19
2023-03-21T07:06:03.510Z,101062.16
2023-03-21T07:08:29.996Z,101065.16
2023-03-21T07:10:57.892Z,101072.09
2023-03-21T07:13:24.408Z,101069.25
2023-03-21T07:15:52.880Z,101077.25
2023-03-21T07:18:19.404Z,101074.69
2023-03-21T07:20:51.122Z,101062.06
2023-03-21T07:23:25.815Z,101071.44
2023-03-21T07:25:52.932Z,101064.28
2023-03-21T07:28:20.108Z,101062.53
2023-03-21T07:30:52.878Z,101070.06
2023-03-21T07:33:19.307Z,101070.94
2023-03-21T07:35:45.940Z,101080.38
2023-03-21T07:38:13.935Z,101066.16
2023-03-21T07:40:40.452Z,101073.88
2023-03-21T07:43:06.896Z,101073.94
2023-03-21T07:45:33.380Z,101081.16
2023-03-21T07:48:01.147Z,101065.13
2023-03-21T07:50:27.801Z,101064.81
2023-03-21T07:52:54.529Z,101069.41
2023-03-21T07:55:21.045Z,101074.84
2023-03-21T07:57:50.011Z,101073.28
2023-03-21T08:00:23.076Z,101075.69
2023-03-21T08:02:57.927Z,101068.53
2023-03-21T08:05:28.075Z,101073.38
2023-03-21T08:07:54.595Z,101076.41
2023-03-21T08:10:21.160Z,101066.78
2023-03-21T08:12:47.840Z,101068.63
2023-03-21T08:15:14.682Z,101075.00
2023-03-21T08:17:41.831Z,101056.13
2023-03-21T08:20:10.297Z,101070.31
2023-03-21T08:22:36.793Z,101066.81
2023-03-21T08:25:05.712Z,101063.25
2023-03-21T08:27:32.801Z,101059.03
2023-03-21T08:30:00.759Z,101067.19
2023-03-21T08:32:31.300Z,101063.25
2023-03-21T08:35:01.554Z,101054.34
2023-03-21T08:37:28.816Z,101058.22
2023-03-21T08:39:55.513Z,101058.16
2023-03-21T08:42:22.989Z,101059.63
2023-03-21T08:44:49.782Z,101060.97
2023-03-21T08:47:16.359Z,101053.31
2023-03-21T08:49:45.728Z,101049.88
2023-03-21T08:52:12.285Z,101059.56
2023-03-21T08:54:40.070Z,101050.97
2023-03-21T08:57:06.799Z,101061.41
2023-03-21T08:59:33.319Z,101060.09
2023-03-21T09:01:59.787Z,101064.63
2023-03-21T09:04:27.086Z,101057.00
2023-03-21T09:06:56.215Z,101063.81
2023-03-21T09:09:22.750Z,101055.31
2023-03-21T09:11:50.532Z,101061.03
2023-03-21T09:14:19.310Z,101059.59
2023-03-21T09:16:46.889Z,101056.44
2023-03-21T09:19:13.581Z,101058.63
2023-03-21T09:21:40.403Z,101065.53
2023-03-21T09:24:07.332Z,101062.88
2023-03-21T09:26:33.977Z,101057.31
2023-03-21T09:29:01.044Z,101056.00
2023-03-21T09:31:28.563Z,101050.03
2023-03-21T09:33:58.063Z,101047.41
2023-03-21T09:36:27.279Z,101053.09
2023-03-21T09:38:54.458Z,101050.03
2023-03-21T09:41:38.930Z,101054.16
2023-03-21T09:44:09.062Z,101055.50
2023-03-21T09:46:56.395Z,101054.72
2023-03-21T09:49:29.579Z,101048.84
2023-03-21T09:51:56.624Z,101046.63
2023-03-21T09:54:28.025Z,101052.63
2023-03-21T09:56:57.750Z,101038.72
2023-03-21T09:59:30.492Z,101042.22
2023-03-21T10:02:00.292Z,101044.28
2023-03-21T10:04:27.686Z,101047.94
2023-03-21T10:06:58.257Z,101041.19
2023-03-21T10:09:30.842Z,101046.50
2023-03-21T10:12:02.554Z,101044.78
2023-03-21T10:14:36.349Z,101050.16
2023-03-21T10:17:23.650Z,101048.34
2023-03-21T10:19:57.291Z,101035.91
2023-03-21T10:22:23.761Z,101032.72
2023-03-21T10:24:50.663Z,101033.63
2023-03-21T10:27:17.182Z,101034.13
2023-03-21T10:29:44.748Z,101025.59
2023-03-21T10:32:14.297Z,101023.78
2023-03-21T10:34:44.148Z,101025.13
2023-03-21T10:37:12.051Z,101027.06
2023-03-21T10:39:40.510Z,101023.06
2023-03-21T10:42:09.039Z,101021.53
2023-03-21T10:44:36.009Z,101022.97
2023-03-21T10:47:08.543Z,101012.25
2023-03-21T10:50:06.456Z,101012.91
2023-03-21T10:52:27.831Z,101006.13
2023-03-21T10:55:08.495Z,101007.69
2023-03-21T10:57:37.308Z,101004.63
2023-03-21T11:00:17.075Z,101009.84
2023-03-21T11:02:48.232Z,101007.16
2023-03-21T11:05:28.008Z,101003.50
2023-03-21T11:08:01.207Z,101000.03
2023-03-21T11:10:32.686Z,100994.38
2023-03-21T11:13:04.053Z,100990.06
2023-03-21T11:15:42.541Z,100983.31
2023-03-21T11:18:19.067Z,100984.59
2023-03-21T11:20:57.492Z,100990.16
2023-03-21T11:23:29.714Z,100991.97
2023-03-21T11:25:58.346Z,100990.59
2023-03-21T11:28:28.600Z,100990.94
2023-03-21T11:30:57.725Z,100991.06
2023-03-21T11:33:28.565Z,100987.25
2023-03-21T11:36:00.333Z,100991.81
2023-03-21T11:38:31.773Z,100978.88
2023-03-21T11:41:01.330Z,100975.63
2023-03-21T11:43:31.994Z,100977.44
2023-03-21T11:46:04.799Z,100975.31
2023-03-21T11:48:35.454Z,100968.53
2023-03-21T11:51:39.114Z,100969.31
2023-03-21T11:54:22.254Z,100966.81
2023-03-21T11:56:54.274Z,100963.00
2023-03-21T11:59:35.888Z,100967.81
2023-03-21T12:02:15.562Z,100961.13
2023-03-21T12:04:46.981Z,100961.53
2023-03-21T12:07:38.483Z,100951.75
2023-03-21T12:10:16.916Z,100950.59
2023-03-21T12:12:56.035Z,100950.91
2023-03-21T12:15:37.472Z,100942.13
2023-03-21T12:18:32.781Z,100941.28
2023-03-21T12:21:34.050Z,100937.03
2023-03-21T12:24:25.922Z,100933.72
2023-03-21T12:26:59.710Z,100926.19
2023-03-21T12:29:40.194Z,100918.19
2023-03-21T12:32:09.625Z,100919.47
2023-03-21T12:35:01.371Z,100920.84
2023-03-21T12:37:53.851Z,100914.28
2023-03-21T12:40:40.707Z,100902.34
2023-03-21T12:43:29.642Z,100910.69
2023-03-21T12:46:00.260Z,100900.63
2023-03-21T12:48:48.632Z,100897.13
2023-03-21T12:51:18.523Z,100897.16
2023-03-21T12:53:53.148Z,100891.94
2023-03-21T12:56:28.803Z,100902.31
2023-03-21T12:59:05.814Z,100893.72
2023-03-21T13:01:32.794Z,100893.28
2023-03-21T13:04:27.353Z,100898.81
2023-03-21T13:06:55.451Z,100892.25
2023-03-21T13:09:38.266Z,100884.06
2023-03-21T13:12:28.023Z,100883.41
2023-03-21T13:15:24.181Z,100885.13
2023-03-21T13:17:59.108Z,100877.44
2023-03-21T13:20:46.610Z,100868.56
2023-03-21T13:23:13.795Z,100867.59
2023-03-21T13:25:46.806Z,100863.19
2023-03-21T13:28:19.289Z,100863.06
2023-03-21T13:30:47.102Z,100861.25
2023-03-21T13:33:16.738Z,100860.47
2023-03-21T13:35:45.065Z,100862.38
2023-03-21T13:38:21.433Z,100849.13
2023-03-21T13:40:50.587Z,100858.16
2023-03-21T13:43:42.812Z,100861.56
2023-03-21T13:46:14.741Z,100852.81
2023-03-21T13:48:57.877Z,100842.34
2023-03-21T13:51:47.663Z,100848.56
2023-03-21T13:54:14.089Z,100845.78
2023-03-21T13:56:46.656Z,100844.16
2023-03-21T13:59:34.889Z,100843.13
2023-03-21T14:02:13.616Z,100841.84
2023-03-21T14:04:53.893Z,100835.34
2023-03-21T14:07:31.484Z,100830.31
2023-03-21T14:10:29.970Z,100833.88
2023-03-21T14:12:57.289Z,100832.59
2023-03-21T14:15:27.718Z,100829.50
2023-03-21T14:17:55.367Z,100823.13
2023-03-21T14:20:24.319Z,100820.66
2023-03-21T14:22:51.261Z,100816.34
2023-03-21T14:25:20.478Z,100823.31
2023-03-21T14:28:09.216Z,100814.59
2023-03-21T14:30:40.968Z,100809.38
2023-03-21T14:33:11.293Z,100812.94
2023-03-21T14:35:38.641Z,100804.09
2023-03-21T14:38:07.485Z,100802.91
2023-03-21T14:40:33.973Z,100808.13
2023-03-21T14:43:07.420Z,100799.78
2023-03-21T14:45:35.376Z,100798.06
2023-03-21T14:48:08.555Z,100802.09
2023-03-21T14:50:47.698Z,100802.09
2023-03-21T14:53:29.031Z,100793.19
2023-03-21T14:56:08.209Z,100795.94
2023-03-21T14:58:38.646Z,100797.75
2023-03-21T15:01:07.545Z,100794.66
2023-03-21T15:03:34.643Z,100790.13
2023-03-21T15:06:01.587Z,100787.41
2023-03-21T15:08:29.003Z,100791.78
2023-03-21T15:11:08.187Z,100779.78
2023-03-21T15:13:45.698Z,100784.66
2023-03-21T15:16:14.807Z,100794.25
2023-03-21T15:18:42.150Z,100782.72
2023-03-21T15:21:12.993Z,100779.53
2023-03-21T15:23:40.661Z,100775.25
2023-03-21T15:26:07.291Z,100767.66
2023-03-21T15:28:34.779Z,100768.44
2023-03-21T15:31:01.651Z,100766.50
2023-03-21T15:33:28.332Z,100764.78
2023-03-21T15:35:57.142Z,100762.19
2023-03-21T15:38:40.132Z,100758.81
2023-03-21T15:41:28.346Z,100762.38
2023-03-21T15:44:15.914Z,100758.84
2023-03-21T15:46:51.383Z,100757.28
2023-03-21T15:49:27.658Z,100761.22
2023-03-21T15:52:01.778Z,100757.16
2023-03-21T15:54:34.390Z,100750.75
2023-03-21T15:57:09.346Z,100753.94
2023-03-21T15:59:40.466Z,100757.56
2023-03-21T16:02:17.657Z,100757.66
2023-03-21T16:04:56.345Z,100748.09
2023-03-21T16:07:25.059Z,100751.03
2023-03-21T16:09:58.508Z,100749.38
2023-03-21T16:12:25.069Z,100747.53
2023-03-21T16:14:51.584Z,100747.13
2023-03-21T16:17:30.402Z,100738.03
2023-03-21T16:19:57.004Z,100744.84
2023-03-21T16:22:23.673Z,100742.44
2023-03-21T16:24:50.197Z,100750.28
2023-03-21T16:27:17.711Z,100755.47
2023-03-21T16:29:44.236Z,100749.91
2023-03-21T16:32:17.139Z,100757.66
2023-03-21T16:34:45.293Z,100749.22
2023-03-21T16:37:12.508Z,100748.13
2023-03-21T16:39:39.177Z,100759.41
2023-03-21T16:42:05.836Z,100744.94
2023-03-21T16:44:33.819Z,100753.44
2023-03-21T16:47:02.376Z,100755.13
2023-03-21T16:49:29.073Z,100753.38
2023-03-21T16:51:57.340Z,100751.00
2023-03-21T16:54:24.153Z,100754.13
2023-03-21T16:56:53.138Z,100742.09
2023-03-21T16:59:20.358Z,100744.38
2023-03-21T17:01:48.134Z,100752.50
2023-03-21T17:04:16.274Z,100747.94
2023-03-21T17:06:47.403Z,100754.09
2023-03-21T17:09:15.539Z,100742.66
2023-03-21T17:11:42.362Z,100743.69
2023-03-21T17:14:10.759Z,100747.91
2023-03-21T17:16:40.274Z,100747.81
2023-03-21T17:19:16.385Z,100746.97
2023-03-21T17:21:42.949Z,100745.00
2023-03-21T17:24:10.063Z,100746.72
2023-03-21T17:26:37.180Z,100743.69
2023-03-21T17:29:03.958Z,100751.34
2023-03-21T17:31:37.514Z,100748.88
2023-03-21T17:34:04.547Z,100753.25
2023-03-21T17:36:39.963Z,100755.91
2023-03-21T17:39:08.760Z,100747.72
2023-03-21T17:41:35.560Z,100745.47
2023-03-21T17:44:02.790Z,100748.16
2023-03-21T17:46:29.827Z,100753.16
2023-03-21T17:48:56.879Z,100743.59
2023-03-21T17:51:26.220Z,100751.47
2023-03-21T17:53:52.809Z,100744.16
2023-03-21T17:56:26.255Z,100748.69
2023-03-21T17:58:53.687Z,100748.81
2023-03-21T18:01:20.330Z,100748.94
2023-03-21T18:03:47.215Z,100748.94
2023-03-21T18:06:18.001Z,100739.91
2023-03-21T18:08:45.448Z,100742.56
2023-03-21T18:11:12.878Z,100742.34
2023-03-21T18:13:40.325Z,100750.47
2023-03-21T18:16:07.581Z,100755.44
2023-03-21T18:18:34.107Z,100751.16
2023-03-21T18:21:01.374Z,100742.72
2023-03-21T18:23:27.999Z,100733.94
2023-03-21T18:25:54.479Z,100738.25
2023-03-21T18:28:21.821Z,100741.09
2023-03-21T18:31:07.838Z,100746.78
2023-03-21T18:33:37.922Z,100741.69
2023-03-21T18:36:07.385Z,100741.84
2023-03-21T18:38:34.472Z,100743.41
2023-03-21T18:41:00.908Z,100739.91
2023-03-21T18:46:16.071Z,100747.88
2023-03-21T18:48:43.942Z,100736.13
2023-03-21T18:51:11.931Z,100733.03
2023-03-21T18:53:52.999Z,100734.84
2023-03-21T18:57:06.141Z,100743.50
2023-03-21T18:59:08.588Z,100739.06
2023-03-21T19:01:35.950Z,100733.06
2023-03-21T19:04:22.859Z,100734.78
2023-03-21T19:06:53.422Z,100736.53
2023-03-21T19:09:29.074Z,100732.22
2023-03-21T19:11:58.859Z,100723.72
2023-03-21T19:14:26.026Z,100721.97
2023-03-21T19:18:03.043Z,100736.72
2023-03-21T19:19:41.329Z,100727.28
2023-03-21T19:22:07.917Z,100729.03
2023-03-21T19:24:34.532Z,100723.69
2023-03-21T19:27:01.031Z,100714.94
2023-03-21T19:29:27.533Z,100720.19
2023-03-21T19:31:54.150Z,100719.19
2023-03-21T19:34:20.866Z,100721.59
2023-03-21T19:36:51.582Z,100723.63
2023-03-21T19:39:22.137Z,100727.03
2023-03-21T19:41:48.992Z,100708.72
2023-03-21T19:44:15.541Z,100716.72
2023-03-21T19:46:42.806Z,100711.16
2023-03-21T19:49:09.818Z,100707.78
2023-03-21T19:51:37.162Z,100708.50
2023-03-21T19:54:05.584Z,100706.88
2023-03-21T19:56:32.176Z,100705.22
2023-03-21T19:58:59.773Z,100704.88
2023-03-21T20:01:26.705Z,100692.94
2023-03-21T20:03:53.717Z,100698.94
2023-03-21T20:06:22.507Z,100694.84
2023-03-21T20:09:47.245Z,100693.06
2023-03-21T20:11:36.603Z,100685.91
2023-03-21T20:14:03.542Z,100687.03
2023-03-21T20:16:35.082Z,100684.44
2023-03-21T20:19:04.531Z,100691.34
2023-03-21T20:21:36.628Z,100678.41
2023-03-21T20:24:08.857Z,100687.81
2023-03-21T20:26:37.519Z,100684.06
2023-03-21T20:29:43.653Z,100685.31
2023-03-21T20:31:53.210Z,100676.50
2023-03-21T20:34:20.586Z,100675.63
2023-03-21T20:36:48.239Z,100678.94
2023-03-21T20:39:15.391Z,100677.88
2023-03-21T20:41:41.921Z,100670.38
2023-03-21T20:44:42.234Z,100670.47
2023-03-21T20:47:00.485Z,100667.75
2023-03-21T20:49:28.196Z,100668.50
2023-03-21T20:54:42.271Z,100678.03
2023-03-21T20:57:09.113Z,100657.50
2023-03-21T20:59:35.722Z,100667.78
2023-03-21T21:02:05.298Z,100667.63
2023-03-21T21:05:12.265Z,100661.06
2023-03-21T21:07:21.880Z,100662.63
2023-03-21T21:09:49.279Z,100675.38
2023-03-21T21:12:19.262Z,100664.94
2023-03-21T21:14:46.828Z,100666.63
2023-03-21T21:20:01.637Z,100657.47
2023-03-21T21:22:29.168Z,100654.84
2023-03-21T21:24:55.623Z,100649.47
2023-03-21T21:27:22.116Z,100649.72
2023-03-21T21:29:50.217Z,100654.78
2023-03-21T21:32:18.677Z,100644.38
2023-03-21T21:34:45.617Z,100650.38
2023-03-21T21:37:12.360Z,100645.31
2023-03-21T21:39:40.332Z,100642.75
2023-03-21T21:42:06.924Z,100637.19
2023-03-21T21:44:33.389Z,100621.63
2023-03-21T21:46:59.941Z,100635.63
2023-03-21T21:49:31.522Z,100629.47
2023-03-21T21:51:59.855Z,100631.31
2023-03-21T21:54:30.329Z,100625.09
2023-03-21T21:56:58.084Z,100634.97
2023-03-21T21:59:24.744Z,100636.63
2023-03-21T22:01:51.508Z,100626.06
2023-03-21T22:04:18.983Z,100627.59
2023-03-21T22:06:48.357Z,100625.19
2023-03-21T22:09:18.027Z,100630.34
2023-03-21T22:11:44.593Z,100627.84
2023-03-21T22:14:11.052Z,100631.13
2023-03-21T22:16:37.603Z,100622.69
2023-03-21T22:19:04.695Z,100629.97
2023-03-21T22:21:34.485Z,100620.91
2023-03-21T22:24:01.772Z,100617.63
2023-03-21T22:26:28.558Z,100610.44
2023-03-21T22:28:55.140Z,100615.72
2023-03-21T22:31:27.045Z,100612.03
2023-03-21T22:33:56.540Z,100614.72
2023-03-21T22:36:22.996Z,100605.13
2023-03-21T22:38:49.445Z,100608.03
2023-03-21T22:41:15.902Z,100604.31
2023-03-21T22:43:42.463Z,100606.16
2023-03-21T22:46:09.021Z,100614.75
2023-03-21T22:48:35.581Z,100605.25
2023-03-21T22:51:02.113Z,100606.97
2023-03-21T22:53:29.142Z,100603.47
2023-03-21T22:55:55.775Z,100598.06
2023-03-21T22:58:22.344Z,100596.56
2023-03-21T23:00:48.923Z,100602.66
2023-03-21T23:03:16.805Z,100601.66
2023-03-21T23:05:44.279Z,100592.97
2023-03-21T23:08:11.121Z,100589.53
2023-03-21T23:10:39.444Z,100588.50
2023-03-21T23:13:07.381Z,100590.22
2023-03-21T23:15:34.018Z,100586.00
2023-03-21T23:18:00.515Z,100577.84
2023-03-21T23:20:27.177Z,100586.00
2023-03-21T23:22:53.781Z,100571.78
2023-03-21T23:25:20.698Z,100583.97
2023-03-21T23:27:50.633Z,100582.19
2023-03-21T23:30:17.218Z,100580.66
2023-03-21T23:32:43.686Z,100584.84
2023-03-21T23:35:10.360Z,100578.78
2023-03-21T23:37:37.170Z,100574.38
2023-03-21T23:40:08.950Z,100575.97
2023-03-21T23:42:36.211Z,100568.22
2023-03-21T23:45:02.818Z,100572.59
2023-03-21T23:47:30.921Z,100565.78
2023-03-21T23:49:58.373Z,100565.47
2023-03-21T23:52:28.265Z,100563.91
2023-03-21T23:54:55.528Z,100566.56
2023-03-21T23:57:22.065Z,100557.75
2023-03-21T23:59:48.530Z,100555.84
